Valdez, AK

2:11 AM AKDT on July 26, 2016 (GMT -0800)
Valdez | | Change Station

Elev 121 ft 61.13 °N, 146.25 °W | Updated 15 minutes ago

Mostly Cloudy
Mostly Cloudy
46 °F
Feels Like 44 °F
N
5
Wind Variable Wind from East

Today
High -- | Low -- °F
--% Chance of Precip.
Yesterday
High -- | Low -- °F
Precip. -- in
Pressure 29.98 in
Visibility 10.0 miles
Clouds Mostly Cloudy 6500 ft
Mostly Cloudy 12000 ft
Windchill 44 °F
Dew Point 43 °F
Humidity 87%
Rainfall 0.02 in
Snow Depth Not available.
5:04 AM 10:36 PM
Waning Gibbous, 56% visible
METAR PAVD 260956Z 10004KT 10SM BKN065 BKN120 08/06 A2998 RMK AO1
Pressure 29.98 in
Visibility 10.0 miles
Clouds Mostly Cloudy 6500 ft
Mostly Cloudy 12000 ft
Windchill 44 °F
Dew Point 43 °F
Humidity 87%
Rainfall 0.02 in
Snow Depth Not available.
5:04 AM 10:36 PM
Waning Gibbous, 56% visible
METAR PAVD 260956Z 10004KT 10SM BKN065 BKN120 08/06 A2998 RMK AO1

10-Day Weather Forecast

Almanac

Astronomy

Jul. 26, 2016 Rise Set
Actual Time
Civil Twilight
Nautical Twilight
Astronomical Twilight
Moon
Length of Visible Light
Length of Day
Tomorrow will be .
, % of the Moon is Illuminated

Today's Extremes

State Highs State Lows

Community

WunderPhotos

Upload Photos

1,927,557 photos uploaded!

WunderBlog® & News

Nearby

Air Quality

  Air Quality AQ Index Pollutant
Not available.

Snow Depth

Station Depth Elevation

Earthquake Activity

City Distance Mag. Time & Date
Minimum magnitude displayed is 2.5.

Coastal Water Temperatures

Place Temperature

Stations

Nearby Weather Stations

Station Location Temp. Windchill Dew Point Humidity Wind Precip. Elev Updated Type
                   

Watches & Warnings

There are currently no watches in effect.